Search for airport 
image banner adimage banner adimage banner ad
image banner ad

23PN - Clearfield Hospital

Located in Clearfield, United States

ICAO - 23PN, IATA -

Data provided by Airmate  

General information

Coordinates: N41°2'2" W78°27'1"
Elevation is 1161 feet MSL.
Magnetic variation is -10° East
View others Airports in Pennsylvania

Operational data

Special qualification required
Current time UTC:
Current local time:
Weather at : KFIG - Clearfield-Lawrence ( 3 km )
METAR: KFIG 071154Z AUTO 36006KT 10SM OVC100 03/00 A2990 RMK AO2 SLP130 7//// T00330000 10033 20000 56001
View NOTAMs / SUP AIP / TFR affecting this airport [VIEW]
Communications frequencies: [VIEW]

Runways:

Airport contact information

Address: Clearfield United States

Satellite view of 23PN